Time;durP1;ratioP1;P1;durP2;ratioP2;P2;SDS_P1;SDS_P2;PMS_P1;PMS_P2;Temp;Humidity;BMP_temperature;BMP_pressure;BME280_temperature;BME280_humidity;BME280_pressure;Samples;Min_cycle;Max_cycle;Signal;HPM_P1;HPM_P2
2023/11/08 00:02:25;;;;;;;6.10;2.30;;;;;;;;;;6265362;22;20023;-91
2023/11/08 00:04:51;;;;;;;6.70;1.80;;;;;;;;;;6266645;22;20009;-87
2023/11/08 00:07:18;;;;;;;7.18;1.50;;;;;;;;;;6267959;22;20008;-87
2023/11/08 00:09:44;;;;;;;7.13;2.30;;;;;;;;;;6265495;22;19995;-89
2023/11/08 00:12:10;;;;;;;6.45;1.63;;;;;;;;;;6267888;22;20008;-90
2023/11/08 00:14:35;;;;;;;4.28;1.70;;;7.40;99.90;;;;;;6263773;22;19992;-88
2023/11/08 00:17:03;;;;;;;6.15;1.60;;;;;;;;;;6268752;22;20000;-87
2023/11/08 00:19:28;;;;;;;5.90;1.70;;;7.30;99.90;;;;;;6268120;22;20003;-87
2023/11/08 00:21:58;;;;;;;10.40;2.72;;;;;;;;;;6241113;22;20353;-89
2023/11/08 00:24:24;;;;;;;4.22;1.67;;;;;;;;;;6267935;22;19988;-88
2023/11/08 00:26:50;;;;;;;6.65;1.98;;;7.30;99.90;;;;;;6266948;22;20031;-88
2023/11/08 00:29:16;;;;;;;6.13;2.15;;;;;;;;;;6242899;22;19996;-89
2023/11/08 00:31:42;;;;;;;6.32;1.95;;;;;;;;;;6267715;22;20008;-90
2023/11/08 00:34:08;;;;;;;5.63;2.53;;;;;;;;;;6243395;22;19999;-87
2023/11/08 00:36:34;;;;;;;7.43;2.30;;;;;;;;;;6268622;22;20016;-88
2023/11/08 00:39:00;;;;;;;5.13;1.75;;;;;;;;;;6265993;22;20002;-89
2023/11/08 00:41:26;;;;;;;6.03;1.95;;;;;;;;;;6267919;22;19988;-88
2023/11/08 00:43:56;;;;;;;7.07;1.90;;;;;;;;;;6267389;22;20016;-87
2023/11/08 00:46:25;;;;;;;5.15;1.92;;;;;;;;;;6267797;22;20008;-87
2023/11/08 00:48:51;;;;;;;5.40;2.05;;;;;;;;;;6266776;22;19989;-88
2023/11/08 00:51:19;;;;;;;6.72;2.25;;;7.20;99.90;;;;;;6266056;22;19996;-88
2023/11/08 00:53:45;;;;;;;6.93;1.63;;;;;;;;;;6240759;22;20000;-89
2023/11/08 00:56:12;;;;;;;16.10;2.97;;;;;;;;;;6266228;22;20023;-89
2023/11/08 00:58:39;;;;;;;8.07;1.90;;;;;;;;;;6267997;22;20060;-87
2023/11/08 01:01:05;;;;;;;9.93;1.80;;;;;;;;;;6266621;22;19989;-88
2023/11/08 01:03:32;;;;;;;7.30;1.67;;;;;;;;;;6263529;22;19988;-88
2023/11/08 01:05:58;;;;;;;8.45;1.90;;;7.40;99.90;;;;;;6267390;22;20000;-88
2023/11/08 01:08:24;;;;;;;5.07;2.42;;;;;;;;;;6266161;22;20035;-88
2023/11/08 01:10:51;;;;;;;5.88;1.80;;;;;;;;;;6266206;22;19999;-88
2023/11/08 01:13:18;;;;;;;7.95;3.15;;;7.50;99.90;;;;;;6264854;22;19996;-90
2023/11/08 01:15:44;;;;;;;6.97;2.00;;;;;;;;;;6239170;22;19992;-88
2023/11/08 01:18:10;;;;;;;5.68;2.47;;;7.50;99.90;;;;;;6265305;22;20058;-88
2023/11/08 01:20:37;;;;;;;5.22;1.67;;;;;;;;;;6264394;22;20244;-89
2023/11/08 01:23:03;;;;;;;6.10;1.75;;;;;;;;;;6262547;22;19993;-87
2023/11/08 01:25:29;;;;;;;3.92;1.60;;;;;;;;;;6264094;22;20111;-86
2023/11/08 01:27:55;;;;;;;9.20;1.88;;;7.50;99.90;;;;;;6265069;22;20028;-89
2023/11/08 01:30:21;;;;;;;5.43;1.70;;;;;;;;;;6264324;22;19996;-87
2023/11/08 01:32:47;;;;;;;2.63;1.40;;;;;;;;;;6262956;22;20008;-88
2023/11/08 01:35:13;;;;;;;7.82;1.95;;;7.50;99.90;;;;;;6265493;22;19996;-88
2023/11/08 01:37:39;;;;;;;4.88;1.90;;;7.50;99.90;;;;;;6264415;22;19992;-89
2023/11/08 01:40:08;;;;;;;7.40;2.03;;;;;;;;;;6266319;22;20018;-90
2023/11/08 01:42:35;;;;;;;5.32;1.50;;;7.60;99.90;;;;;;6266771;22;20007;-88
2023/11/08 01:45:04;;;;;;;6.25;1.40;;;;;;;;;;6239883;22;20020;-89
2023/11/08 01:47:30;;;;;;;4.22;1.40;;;;;;;;;;6258806;22;20435;-87
2023/11/08 01:49:56;;;;;;;6.40;1.85;;;;;;;;;;6266470;22;19992;-86
2023/11/08 01:52:23;;;;;;;7.30;1.40;;;;;;;;;;6266916;22;20022;-91
2023/11/08 01:54:49;;;;;;;9.18;1.63;;;;;;;;;;6267708;22;19996;-88
2023/11/08 01:57:15;;;;;;;5.00;1.70;;;7.70;99.90;;;;;;6269900;22;20063;-87
2023/11/08 01:59:43;;;;;;;3.53;1.60;;;7.70;99.90;;;;;;6244432;22;19988;-88
2023/11/08 02:02:09;;;;;;;5.35;1.58;;;7.60;99.90;;;;;;6242613;22;20003;-88
2023/11/08 02:04:35;;;;;;;4.38;1.52;;;;;;;;;;6240587;22;20028;-87
2023/11/08 02:07:01;;;;;;;6.75;2.00;;;;;;;;;;6263684;22;20004;-90
2023/11/08 02:09:29;;;;;;;4.00;1.77;;;7.70;99.90;;;;;;6269171;22;20040;-87
2023/11/08 02:11:58;;;;;;;7.15;1.63;;;;;;;;;;6268525;22;20011;-87
2023/11/08 02:14:25;;;;;;;7.03;2.25;;;;;;;;;;6270268;22;20004;-90
2023/11/08 02:16:51;;;;;;;8.38;2.03;;;;;;;;;;6269406;22;20000;-88
2023/11/08 02:19:17;;;;;;;2.90;1.50;;;;;;;;;;6269022;22;20028;-89
2023/11/08 02:21:43;;;;;;;6.78;1.52;;;;;;;;;;6268720;22;19996;-88
2023/11/08 02:24:18;;;;;;;6.50;1.65;;;7.80;99.90;;;;;;6268700;22;20019;-87
2023/11/08 02:26:48;;;;;;;5.47;1.45;;;7.90;99.90;;;;;;6269878;22;20000;-90
2023/11/08 02:29:15;;;;;;;9.40;1.70;;;7.80;99.90;;;;;;6243679;22;19992;-87
2023/11/08 02:31:41;;;;;;;5.43;1.67;;;;;;;;;;6242193;22;20008;-87
2023/11/08 02:34:09;;;;;;;6.57;1.75;;;7.90;99.90;;;;;;6269516;22;19989;-90
2023/11/08 02:36:35;;;;;;;8.18;1.80;;;7.90;99.90;;;;;;6241760;22;20048;-89
2023/11/08 02:39:01;;;;;;;6.93;1.40;;;7.90;99.90;;;;;;6243265;22;20010;-88
2023/11/08 02:41:27;;;;;;;6.55;1.75;;;;;;;;;;6241787;22;19996;-89
2023/11/08 02:43:53;;;;;;;7.40;1.63;;;;;;;;;;6268428;22;20015;-90
2023/11/08 02:46:19;;;;;;;7.28;1.65;;;;;;;;;;6268964;22;20000;-89
2023/11/08 02:48:45;;;;;;;6.50;1.58;;;8.00;99.90;;;;;;6268960;22;20016;-89
2023/11/08 02:51:11;;;;;;;5.10;1.40;;;;;;;;;;6260790;22;20142;-87
2023/11/08 02:53:38;;;;;;;3.58;1.40;;;;;;;;;;6264863;22;20016;-89
2023/11/08 02:56:04;;;;;;;8.18;1.50;;;;;;;;;;6268437;22;19985;-90
2023/11/08 02:58:30;;;;;;;6.85;1.60;;;7.90;99.90;;;;;;6268029;22;20004;-90
2023/11/08 03:00:56;;;;;;;4.85;1.33;;;;;;;;;;6269249;22;20007;-88
2023/11/08 03:03:22;;;;;;;5.57;1.40;;;7.90;99.90;;;;;;6266770;22;20024;-88
2023/11/08 03:05:48;;;;;;;5.80;1.33;;;;;;;;;;6269296;22;20052;-88
2023/11/08 03:08:14;;;;;;;11.43;2.47;;;;;;;;;;6270061;22;20015;-88
2023/11/08 03:10:41;;;;;;;7.03;1.63;;;7.90;99.90;;;;;;6266712;22;20002;-87
2023/11/08 03:13:07;;;;;;;4.30;1.60;;;;;;;;;;6242835;22;19996;-87
2023/11/08 03:15:33;;;;;;;3.55;1.60;;;;;;;;;;6220753;22;20015;-87
2023/11/08 03:17:59;;;;;;;5.93;1.50;;;;;;;;;;6270690;22;20044;-87
2023/11/08 03:20:25;;;;;;;4.75;1.50;;;;;;;;;;6270248;22;20076;-87
2023/11/08 03:22:51;;;;;;;4.07;1.35;;;;;;;;;;6271644;22;20019;-90
2023/11/08 03:25:20;;;;;;;3.40;1.20;;;;;;;;;;6271972;22;20003;-86
2023/11/08 03:27:46;;;;;;;4.70;1.35;;;;;;;;;;6269902;22;20000;-88
2023/11/08 03:30:22;;;;;;;4.60;1.48;;;8.00;99.90;;;;;;6267700;22;20000;-88
2023/11/08 03:32:49;;;;;;;7.38;1.73;;;;;;;;;;6266870;22;20059;-90
2023/11/08 03:35:15;;;;;;;7.65;1.55;;;;;;;;;;6271038;22;20003;-89
2023/11/08 03:37:45;;;;;;;5.88;1.67;;;8.00;99.90;;;;;;6271143;22;20230;-87
2023/11/08 03:40:11;;;;;;;5.82;1.45;;;;;;;;;;6245409;22;20023;-87
2023/11/08 03:42:46;;;;;;;4.65;1.30;;;;;;;;;;6219608;23;20197;-88
2023/11/08 03:45:13;;;;;;;6.68;1.25;;;8.10;99.90;;;;;;6269584;22;20008;-88
2023/11/08 03:47:39;;;;;;;8.40;2.08;;;8.10;99.90;;;;;;6271039;22;20020;-87
2023/11/08 03:50:09;;;;;;;8.30;1.88;;;;;;;;;;6240898;22;19992;-90
2023/11/08 03:52:34;;;;;;;6.07;1.80;;;8.10;99.90;;;;;;6269736;22;19992;-89
2023/11/08 03:55:00;;;;;;;3.53;1.20;;;;;;;;;;6242003;23;20008;-89
2023/11/08 03:57:27;;;;;;;5.00;1.60;;;8.10;99.90;;;;;;6265256;22;20008;-87
2023/11/08 03:59:56;;;;;;;5.68;1.63;;;;;;;;;;6269515;22;19988;-89
2023/11/08 04:02:22;;;;;;;8.45;1.83;;;;;;;;;;6269787;23;19999;-90
2023/11/08 04:04:48;;;;;;;6.05;1.95;;;8.10;99.90;;;;;;6268501;22;20010;-88
2023/11/08 04:07:14;;;;;;;4.00;1.27;;;8.10;99.90;;;;;;6269852;22;20129;-88
2023/11/08 04:09:44;;;;;;;7.88;1.48;;;8.10;99.90;;;;;;6266434;22;20490;-89
2023/11/08 04:12:10;;;;;;;5.03;1.85;;;8.10;99.90;;;;;;6241313;22;20106;-88
2023/11/08 04:14:37;;;;;;;8.02;2.47;;;8.10;99.90;;;;;;6265392;22;20006;-88
2023/11/08 04:17:03;;;;;;;7.38;1.60;;;;;;;;;;6267378;22;19998;-89
2023/11/08 04:19:29;;;;;;;7.55;1.30;;;;;;;;;;6266978;23;20013;-88
2023/11/08 04:21:55;;;;;;;5.75;1.60;;;;;;;;;;6265944;22;20047;-89
2023/11/08 04:24:21;;;;;;;3.92;1.42;;;;;;;;;;6264598;22;20001;-87
2023/11/08 04:26:48;;;;;;;4.22;1.83;;;;;;;;;;6264773;22;20366;-88
2023/11/08 04:29:13;;;;;;;10.77;1.60;;;8.20;99.90;;;;;;6268610;23;19980;-88
2023/11/08 04:31:40;;;;;;;5.50;1.90;;;;;;;;;;6240319;23;20015;-88
2023/11/08 04:34:05;;;;;;;5.13;1.30;;;;;;;;;;6264787;22;20027;-89
2023/11/08 04:36:31;;;;;;;6.25;1.20;;;;;;;;;;6263343;23;20008;-90
2023/11/08 04:38:59;;;;;;;6.60;1.40;;;;;;;;;;6265955;23;19996;-89
2023/11/08 04:41:25;;;;;;;6.63;1.40;;;;;;;;;;6265995;23;20020;-88
2023/11/08 04:43:51;;;;;;;9.05;1.50;;;;;;;;;;6266479;23;20033;-88
2023/11/08 04:46:18;;;;;;;4.70;1.45;;;8.30;99.90;;;;;;6266615;23;20016;-90
2023/11/08 04:48:44;;;;;;;4.85;1.25;;;;;;;;;;6242283;23;20032;-90
2023/11/08 04:51:11;;;;;;;7.90;1.60;;;;;;;;;;6263443;22;19992;-89
2023/11/08 04:53:37;;;;;;;21.63;2.97;;;;;;;;;;6266179;22;20004;-88
2023/11/08 04:56:04;;;;;;;7.07;1.83;;;8.30;99.90;;;;;;6268944;22;20387;-87
2023/11/08 04:58:30;;;;;;;4.70;1.73;;;8.30;99.90;;;;;;6242996;22;20000;-89
2023/11/08 05:00:56;;;;;;;6.35;1.60;;;;;;;;;;6270191;22;20015;-91
2023/11/08 05:03:22;;;;;;;6.75;1.50;;;;;;;;;;6184256;22;20005;-89
2023/11/08 05:05:48;;;;;;;4.75;1.23;;;;;;;;;;6214671;22;20262;-88
2023/11/08 05:08:14;;;;;;;12.20;1.63;;;8.30;99.90;;;;;;6210243;22;20008;-89
2023/11/08 05:10:40;;;;;;;5.47;1.20;;;;;;;;;;6203426;22;20020;-87
2023/11/08 05:13:07;;;;;;;5.75;1.80;;;;;;;;;;6207402;22;20035;-88
2023/11/08 05:15:33;;;;;;;7.28;1.83;;;;;;;;;;6209697;22;19992;-88
2023/11/08 05:18:00;;;;;;;6.45;1.40;;;8.30;99.90;;;;;;6210089;22;19997;-88
2023/11/08 05:20:26;;;;;;;4.70;1.13;;;;;;;;;;6234825;22;20057;-89
2023/11/08 05:22:56;;;;;;;5.80;1.70;;;;;;;;;;6208640;22;19989;-88
2023/11/08 05:25:22;;;;;;;5.03;1.42;;;;;;;;;;6211163;22;20001;-88
2023/11/08 12:43:36;;;;;;;4.15;1.70;;;11.70;99.90;;;;;;6145058;23;20317;-88
2023/11/08 12:46:04;;;;;;;3.10;1.85;;;11.70;99.90;;;;;;6184226;23;20013;-87
2023/11/08 12:48:31;;;;;;;6.00;1.75;;;11.70;99.90;;;;;;6208609;23;20013;-87
2023/11/08 12:51:05;;;;;;;4.78;2.03;;;11.70;99.90;;;;;;6209814;23;20001;-87
2023/11/08 12:53:31;;;;;;;4.75;1.90;;;;;;;;;;6184042;23;20013;-88
2023/11/08 12:56:07;;;;;;;5.80;1.80;;;11.80;99.90;;;;;;6208253;23;20349;-86
2023/11/08 12:58:35;;;;;;;4.18;1.50;;;11.80;99.90;;;;;;6183654;23;20011;-88
2023/11/08 13:01:02;;;;;;;3.60;1.77;;;11.70;99.90;;;;;;6209753;23;20028;-87
2023/11/08 13:03:31;;;;;;;4.90;1.70;;;;;;;;;;6159389;23;20005;-86
2023/11/08 13:05:58;;;;;;;3.85;1.50;;;11.80;99.90;;;;;;6208845;23;20476;-85
2023/11/08 13:08:26;;;;;;;5.72;1.95;;;11.90;99.90;;;;;;6207753;23;19993;-86
2023/11/08 13:10:52;;;;;;;6.60;1.80;;;;;;;;;;6184592;23;20040;-88
2023/11/08 13:13:19;;;;;;;3.67;1.48;;;;;;;;;;6208410;23;20028;-87
2023/11/08 13:15:47;;;;;;;3.65;1.23;;;12.10;99.90;;;;;;6208645;23;19985;-88
2023/11/08 13:18:14;;;;;;;2.10;1.23;;;;;;;;;;6208901;23;20057;-88
2023/11/08 13:20:40;;;;;;;3.63;1.42;;;;;;;;;;6209631;23;20001;-84
2023/11/08 13:23:06;;;;;;;3.40;1.25;;;;;;;;;;6208147;23;20009;-86
2023/11/08 13:25:32;;;;;;;2.45;1.25;;;;;;;;;;6205632;23;20508;-87
2023/11/08 13:27:59;;;;;;;2.38;1.20;;;;;;;;;;6206492;23;20009;-88
2023/11/08 13:30:25;;;;;;;3.67;1.55;;;;;;;;;;6204050;23;20001;-87
2023/11/08 13:32:52;;;;;;;4.28;1.45;;;;;;;;;;6207467;23;20005;-84
2023/11/08 13:35:21;;;;;;;5.28;1.33;;;;;;;;;;6206439;23;20429;-85
2023/11/08 13:37:48;;;;;;;3.58;1.02;;;12.10;99.90;;;;;;6207326;23;20062;-84
2023/11/08 13:40:14;;;;;;;2.47;1.20;;;;;;;;;;6183012;23;19989;-87
2023/11/08 13:42:41;;;;;;;27.45;2.80;;;;;;;;;;6205760;23;19992;-85
2023/11/08 13:45:09;;;;;;;3.42;1.10;;;;;;;;;;6225138;23;20009;-88
2023/11/08 13:47:37;;;;;;;3.95;1.05;;;;;;;;;;6207519;23;20009;-88
2023/11/08 13:50:06;;;;;;;2.75;1.30;;;12.20;99.90;;;;;;6232191;23;20001;-87
2023/11/08 13:52:32;;;;;;;2.75;1.10;;;;;;;;;;6205887;23;20013;-85
2023/11/08 13:55:00;;;;;;;4.55;1.30;;;;;;;;;;6230694;23;19989;-85
2023/11/08 13:57:29;;;;;;;3.63;1.27;;;12.10;99.90;;;;;;6208292;23;19981;-89
2023/11/08 13:59:55;;;;;;;4.20;1.40;;;;;;;;;;6210836;23;20015;-88
2023/11/08 14:02:22;;;;;;;4.28;1.30;;;;;;;;;;6210321;23;20007;-88
2023/11/08 14:04:48;;;;;;;2.22;1.10;;;;;;;;;;6234169;23;20057;-89
2023/11/08 14:07:14;;;;;;;2.78;1.10;;;;;;;;;;6210372;23;20104;-89
2023/11/08 14:09:40;;;;;;;2.67;1.20;;;;;;;;;;6209508;23;20005;-89
2023/11/08 14:12:09;;;;;;;2.70;1.33;;;;;;;;;;6232154;23;19997;-87
2023/11/08 14:14:35;;;;;;;3.03;1.52;;;;;;;;;;6208399;23;20015;-88
2023/11/08 14:17:02;;;;;;;2.13;1.30;;;;;;;;;;6209186;23;19986;-87
2023/11/08 14:19:28;;;;;;;2.10;1.20;;;;;;;;;;6209823;23;20008;-87
2023/11/08 14:21:54;;;;;;;2.85;1.25;;;;;;;;;;6183831;23;19995;-86
2023/11/08 14:24:20;;;;;;;2.97;1.20;;;;;;;;;;6209795;23;19998;-88
2023/11/08 14:26:47;;;;;;;3.42;0.90;;;;;;;;;;6232038;23;20005;-85
2023/11/08 14:29:16;;;;;;;1.83;1.05;;;;;;;;;;6206994;23;20028;-85
2023/11/08 14:31:42;;;;;;;1.80;1.13;;;;;;;;;;6231309;23;20593;-87
2023/11/08 14:34:09;;;;;;;3.30;1.10;;;;;;;;;;6207853;23;20024;-85
2023/11/08 14:36:35;;;;;;;2.28;1.13;;;;;;;;;;6231605;23;20001;-89
2023/11/08 14:39:04;;;;;;;3.45;1.17;;;;;;;;;;6208405;23;19998;-86
2023/11/08 14:41:30;;;;;;;2.53;1.27;;;;;;;;;;6230812;23;20021;-88
2023/11/08 14:43:57;;;;;;;4.68;1.10;;;;;;;;;;6231101;23;20032;-85
2023/11/08 14:46:25;;;;;;;3.70;1.25;;;;;;;;;;6207169;23;19996;-86
2023/11/08 14:48:51;;;;;;;3.10;1.35;;;;;;;;;;6208344;23;20009;-88
2023/11/08 14:51:17;;;;;;;3.65;1.48;;;;;;;;;;6206844;23;20004;-88
2023/11/08 14:53:43;;;;;;;1.65;1.10;;;;;;;;;;6208329;23;19989;-85
2023/11/08 14:56:10;;;;;;;2.92;1.02;;;;;;;;;;6208580;23;20028;-85
2023/11/08 14:58:36;;;;;;;2.25;1.17;;;;;;;;;;6182979;23;20009;-88
2023/11/08 15:01:02;;;;;;;2.15;1.20;;;;;;;;;;6232009;22;20104;-87
2023/11/08 15:03:28;;;;;;;3.25;1.17;;;;;;;;;;6227340;23;20056;-87
2023/11/08 15:05:54;;;;;;;2.25;1.10;;;;;;;;;;6202831;23;20065;-86
2023/11/08 15:08:21;;;;;;;1.95;1.17;;;;;;;;;;6202304;23;20009;-84
2023/11/08 15:10:47;;;;;;;4.15;1.50;;;;;;;;;;6203925;23;20448;-87
2023/11/08 15:13:14;;;;;;;2.78;1.20;;;;;;;;;;6203462;23;20001;-85
2023/11/08 15:15:41;;;;;;;3.40;1.20;;;;;;;;;;6202409;23;19997;-86
2023/11/08 15:18:07;;;;;;;2.20;1.10;;;;;;;;;;6226790;23;20009;-87
2023/11/08 15:20:33;;;;;;;4.57;1.50;;;;;;;;;;6204632;23;20005;-85
2023/11/08 15:22:59;;;;;;;3.95;1.77;;;;;;;;;;6226895;23;20015;-88
2023/11/08 15:25:26;;;;;;;4.03;1.30;;;;;;;;;;6194772;23;20036;-83
2023/11/08 15:27:52;;;;;;;4.82;1.20;;;;;;;;;;6195128;23;20036;-88
2023/11/08 15:30:18;;;;;;;5.05;1.45;;;;;;;;;;6195382;23;20009;-87
2023/11/08 15:32:45;;;;;;;2.15;1.10;;;;;;;;;;6215568;23;19997;-88
2023/11/08 15:35:12;;;;;;;4.75;1.20;;;;;;;;;;6214520;23;20029;-88
2023/11/08 15:37:38;;;;;;;7.25;1.92;;;;;;;;;;6191674;23;20059;-88
2023/11/08 15:40:05;;;;;;;6.00;1.55;;;;;;;;;;6193062;23;20009;-84
2023/11/08 15:42:32;;;;;;;4.95;1.80;;;;;;;;;;6214733;23;20005;-83
2023/11/08 15:44:59;;;;;;;5.47;2.08;;;;;;;;;;6191755;23;20017;-85
2023/11/08 15:47:28;;;;;;;2.08;1.10;;;;;;;;;;6192884;23;20028;-84
2023/11/08 15:50:17;;;;;;;3.22;1.30;;;11.10;99.90;;;;;;6192343;23;20719;-87
2023/11/08 15:52:43;;;;;;;4.43;1.50;;;;;;;;;;6178367;23;20001;-86
2023/11/08 15:55:11;;;;;;;4.05;1.30;;;;;;;;;;6193076;23;20001;-83
2023/11/08 15:57:38;;;;;;;3.40;1.60;;;;;;;;;;6217265;23;20416;-86
2023/11/08 16:00:07;;;;;;;2.72;1.40;;;;;;;;;;6191251;23;20000;-86
2023/11/08 16:02:33;;;;;;;2.65;1.40;;;;;;;;;;6217329;23;20008;-83
2023/11/08 16:05:04;;;;;;;4.35;1.45;;;;;;;;;;6195279;23;20000;-88
2023/11/08 16:07:42;;;;;;;3.95;1.50;;;10.80;99.90;;;;;;6217738;23;20320;-86
2023/11/08 16:10:08;;;;;;;2.85;1.48;;;10.80;99.90;;;;;;6197336;23;20001;-84
2023/11/08 16:12:35;;;;;;;3.88;1.45;;;;;;;;;;6193658;23;20000;-85
2023/11/08 16:15:04;;;;;;;5.50;2.65;;;;;;;;;;6196076;23;20001;-87
2023/11/08 16:17:33;;;;;;;3.97;2.15;;;;;;;;;;6193428;23;20009;-89
2023/11/08 16:21:40;;;;;;;;;;;;;;;;;;;;;
2023/11/08 16:23:51;;;;;;;2.88;1.67;;;10.70;99.90;;;;;;6068380;23;20011;-87
2023/11/08 16:27:04;;;;;;;3.85;1.60;;;10.70;99.90;;;;;;6074533;23;20039;-84
2023/11/08 16:29:40;;;;;;;5.03;1.80;;;;;;;;;;5949330;23;20009;-88
2023/11/08 16:32:07;;;;;;;2.85;1.48;;;;;;;;;;6075714;23;20006;-88
2023/11/08 16:34:33;;;;;;;2.42;1.15;;;;;;;;;;6146355;23;20002;-88
2023/11/08 16:37:03;;;;;;;6.13;2.25;;;;;;;;;;6196167;23;19997;-88
2023/11/08 16:39:29;;;;;;;4.40;1.40;;;;;;;;;;6197124;23;20009;-89
2023/11/08 16:41:58;;;;;;;4.28;1.27;;;;;;;;;;6198178;23;20068;-89
2023/11/08 16:44:33;;;;;;;4.22;1.40;;;;;;;;;;6201634;23;20096;-89
2023/11/08 16:46:59;;;;;;;6.13;1.60;;;;;;;;;;6200415;23;20020;-87
2023/11/08 16:49:25;;;;;;;3.20;1.40;;;;;;;;;;6201358;23;20020;-89
2023/11/08 16:51:53;;;;;;;3.70;1.90;;;;;;;;;;6200485;23;20001;-89
2023/11/08 21:44:06;;;;;;;6.80;2.22;;;;;;;;;;6195215;23;20080;-83
2023/11/08 21:46:37;;;;;;;6.22;2.63;;;8.50;99.90;;;;;;6195690;23;20005;-83
2023/11/08 21:49:04;;;;;;;6.55;2.42;;;;;;;;;;6196991;23;20020;-82
2023/11/08 21:51:38;;;;;;;5.00;2.30;;;8.40;99.90;;;;;;6195178;23;20021;-83
2023/11/08 21:54:09;;;;;;;4.63;2.10;;;;;;;;;;6200145;23;20428;-83
2023/11/08 21:56:36;;;;;;;;;;;8.30;99.90;;;;;;6196759;23;20024;-80
2023/11/08 21:59:20;;;;;;;5.22;2.20;;;8.30;99.90;;;;;;6195682;23;19939;-81
2023/11/08 22:02:07;;;;;;;7.25;2.70;;;;;;;;;;6195437;23;20005;-82
2023/11/08 22:04:34;;;;;;;8.25;2.72;;;;;;;;;;6194368;23;20013;-82
2023/11/08 22:07:04;;;;;;;4.95;2.03;;;;;;;;;;6194567;23;20012;-82
2023/11/08 22:09:31;;;;;;;5.97;2.47;;;;;;;;;;6216866;23;20064;-82
2023/11/08 22:11:57;;;;;;;7.30;2.67;;;;;;;;;;6192137;23;19997;-81
2023/11/08 22:14:24;;;;;;;4.28;2.05;;;;;;;;;;6214865;23;20029;-81
2023/11/08 22:16:52;;;;;;;6.55;2.30;;;;;;;;;;6165719;23;20001;-82
2023/11/08 22:19:18;;;;;;;5.00;2.30;;;;;;;;;;6191130;23;20316;-81
2023/11/08 22:21:45;;;;;;;4.65;2.20;;;;;;;;;;6214032;23;20001;-81
2023/11/08 22:24:15;;;;;;;14.98;6.97;;;;;;;;;;6164820;23;20131;-80
2023/11/08 22:26:41;;;;;;;6.00;2.47;;;;;;;;;;6214796;23;19998;-82
2023/11/08 22:29:09;;;;;;;7.22;2.88;;;;;;;;;;6191098;23;20013;-82
2023/11/08 22:31:37;;;;;;;5.80;2.42;;;;;;;;;;6215565;23;20029;-82
2023/11/08 22:34:04;;;;;;;4.65;2.30;;;;;;;;;;6192604;23;20005;-82
2023/11/08 22:36:31;;;;;;;4.68;2.35;;;;;;;;;;6215644;23;20009;-82
2023/11/08 22:39:03;;;;;;;6.97;2.10;;;;;;;;;;6192759;23;20076;-82
2023/11/08 22:41:32;;;;;;;4.38;2.28;;;;;;;;;;6192375;23;20028;-81
2023/11/08 22:44:01;;;;;;;7.35;2.55;;;;;;;;;;6193073;23;20072;-82
2023/11/08 22:46:31;;;;;;;6.88;2.00;;;;;;;;;;6196415;23;20028;-82
2023/11/08 22:48:59;;;;;;;4.85;2.25;;;;;;;;;;6220561;23;20036;-82
2023/11/08 22:51:32;;;;;;;6.60;1.95;;;;;;;;;;6197075;23;19993;-82
2023/11/08 22:54:05;;;;;;;4.07;2.35;;;;;;;;;;6207856;23;19997;-83
2023/11/08 22:56:36;;;;;;;4.03;2.20;;;8.10;99.90;;;;;;6207987;23;19998;-83
2023/11/08 22:59:03;;;;;;;4.75;2.17;;;;;;;;;;6207357;23;20005;-82
2023/11/08 23:01:36;;;;;;;4.90;1.73;;;8.10;99.90;;;;;;6206527;23;20024;-82
2023/11/08 23:04:05;;;;;;;4.80;2.38;;;8.10;99.90;;;;;;6201393;23;20064;-81
2023/11/08 23:06:32;;;;;;;3.95;1.88;;;8.00;99.90;;;;;;6198052;23;20013;-82
2023/11/08 23:09:05;;;;;;;3.85;1.77;;;;;;;;;;6200545;23;20001;-81
2023/11/08 23:11:33;;;;;;;6.00;2.38;;;;;;;;;;6201204;23;20001;-83
2023/11/08 23:14:00;;;;;;;4.78;2.10;;;;;;;;;;6217429;23;20036;-82
2023/11/08 23:16:26;;;;;;;4.75;2.20;;;;;;;;;;6198204;23;20001;-82
2023/11/08 23:18:54;;;;;;;5.20;2.65;;;;;;;;;;6197778;23;20001;-81
2023/11/08 23:21:20;;;;;;;4.57;2.10;;;;;;;;;;6175111;23;19997;-82
2023/11/08 23:23:49;;;;;;;5.35;2.22;;;7.90;99.90;;;;;;6200897;23;20005;-81
2023/11/08 23:26:18;;;;;;;5.25;2.25;;;;;;;;;;6199571;23;20028;-81
2023/11/08 23:28:44;;;;;;;4.85;2.70;;;;;;;;;;6223682;23;20048;-81
2023/11/08 23:31:11;;;;;;;5.43;2.47;;;;;;;;;;6225050;23;20005;-82
2023/11/08 23:33:39;;;;;;;3.95;2.30;;;;;;;;;;6202243;23;20052;-82
2023/11/08 23:36:09;;;;;;;3.55;1.85;;;;;;;;;;6225146;23;20007;-81
2023/11/08 23:38:35;;;;;;;4.93;2.40;;;;;;;;;;6199842;23;20035;-81
2023/11/08 23:41:02;;;;;;;4.80;2.10;;;;;;;;;;6224102;23;20013;-81
2023/11/08 23:43:31;;;;;;;6.32;3.20;;;;;;;;;;6199460;23;20013;-81
2023/11/08 23:46:00;;;;;;;4.57;1.85;;;;;;;;;;6200756;23;20005;-83
2023/11/08 23:48:26;;;;;;;3.70;1.95;;;;;;;;;;6225760;23;20041;-82
2023/11/08 23:50:53;;;;;;;6.53;3.35;;;;;;;;;;6224745;23;19997;-82
2023/11/08 23:53:20;;;;;;;4.40;2.10;;;;;;;;;;6201674;23;19993;-82
2023/11/08 23:55:47;;;;;;;4.30;2.00;;;;;;;;;;6202375;23;20001;-82
2023/11/08 23:58:15;;;;;;;6.35;2.10;;;;;;;;;;6226168;23;20086;-81
